Latest Coastal Weather Observations for Portland Harbour

IDV60701

Issued at 9:21 am EST Thursday 1 September 2016 (issued every 10 minutes, with the page automatically refreshed every 10 minutes)

About coastal observations | Map of coastal stations | Coastal observations for VIC | Marine services | Other Formats
Station Details ID: 090192 Name: PORTLAND NTC AWS Lat: -38.34 Lon: 141.61 Height: 0.0 m
Data from the previous 72 hours. | See also: Recent months for locations in Victoria
Date/Time
EST
Temp
°C
Wind Pressure Rain since
9am
mm
Weather Cloud Vis
km
Sea
Height
m
Swell
Dir  Spd
kts
Gust
kts
hPa Trend Height
m
Period
s
Dir
01/09:00am 11.6 WNW 4 5 1018.0 - - - - - - - - -
01/08:30am 11.2 WSW 2 3 1018.0 - - - - - - - - -
01/08:00am 11.0 NW 5 7 1017.7 - - - - - - - - -
01/07:30am 10.9 WSW 3 5 1017.6 - - - - - - - - -
01/07:00am 10.8 WSW 3 4 1017.4 - - - - - - - - -
01/06:30am 10.8 NW 1 2 1017.1 - - - - - - - - -
01/06:00am 10.9 WSW 1 2 1017.1 - - - - - - - - -
01/05:30am 10.9 NW 4 5 1016.9 - - - - - - - - -
01/05:00am 11.1 NW 5 6 1017.0 - - - - - - - - -
01/04:30am 11.0 WNW 5 7 1016.9 - - - - - - - - -
01/04:00am 11.0 WSW 3 5 1016.9 - - - - - - - - -
01/03:30am 11.0 WNW 3 5 1016.9 - - - - - - - - -
01/03:00am 11.1 WNW 5 7 1017.0 - - - - - - - - -
01/02:30am 11.2 W 2 3 1017.0 - - - - - - - - -
01/02:00am 11.7 NNW 6 8 1017.0 - - - - - - - - -
01/01:30am 11.5 NW 5 7 1017.2 - - - - - - - - -
01/01:00am 11.1 WNW 1 2 1017.1 - - - - - - - - -
01/12:30am 11.4 NNW 4 5 1016.9 - - - - - - - - -
01/12:00am 11.3 WNW 4 5 1016.9 - - - - - - - - -
 
Date/Time
EST
Temp
°C
Wind Pressure Rain since
9am
mm
Weather Cloud Vis
km
Sea
Height
m
Swell
Dir  Spd
kts
Gust
kts
hPa Trend Height
m
Period
s
Dir
31/11:30pm 11.6 W 3 5 1016.8 - - - - - - - - -
31/11:00pm 11.7 WNW 5 8 1016.9 - - - - - - - - -
31/10:30pm 11.9 WNW 3 4 1016.9 - - - - - - - - -
31/10:00pm 12.0 W 3 5 1016.7 - - - - - - - - -
31/09:30pm 11.9 W 6 8 1016.7 - - - - - - - - -
31/09:00pm 11.9 WSW 7 10 1016.3 - - - - - - - - -
31/08:30pm 12.0 W 6 11 1016.0 - - - - - - - - -
31/08:00pm 12.3 W 4 6 1015.7 - - - - - - - - -
31/07:30pm 12.6 W 4 6 1015.2 - - - - - - - - -
31/07:00pm 12.8 W 5 8 1015.0 - - - - - - - - -
31/06:30pm 13.1 W 6 9 1014.8 - - - - - - - - -
31/06:00pm 13.1 W 7 9 1014.5 - - - - - - - - -
31/05:30pm 13.7 W 9 15 1014.1 - - - - - - - - -
31/05:00pm 14.1 W 11 16 1013.8 - - - - - - - - -
31/04:30pm 14.0 W 13 19 1013.4 - - - - - - - - -
31/04:00pm 13.7 W 12 17 1013.3 - - - - - - - - -
31/03:30pm 13.6 WSW 13 21 1013.3 - - - - - - - - -
31/03:00pm 13.5 W 11 16 1013.2 - - - - - - - - -
31/02:30pm 13.0 W 13 20 1013.2 - - - - - - - - -
31/02:00pm 13.7 WSW 11 19 1012.8 - - - - - - - - -
31/01:30pm 15.1 W 18 24 1012.5 - - - - - - - - -
31/01:00pm 14.8 W 13 21 1012.7 - - - - - - - - -
31/12:30pm 14.7 W 16 25 1012.7 - - - - - - - - -
31/12:00pm 14.7 WNW 17 25 1012.8 - - - - - - - - -
31/11:30am 14.7 W 18 25 1012.7 - - - - - - - - -
31/11:05am 14.4 W 15 25 1012.7 - - - - - - - - -
31/11:00am 14.4 W 13 19 1012.7 - - - - - - - - -
31/10:30am 12.8 W 17 27 1012.9 - - - - - - - - -
31/10:23am 13.7 W 15 27 1012.7 - - - - - - - - -
31/10:00am 13.7 W 11 18 1012.7 - - - - - - - - -
31/09:30am 13.5 W 12 19 1012.7 - - - - - - - - -
31/09:00am 13.2 NW 8 14 1012.6 - - - - - - - - -
31/08:30am 12.5 WNW 9 14 1012.2 - - - - - - - - -
31/08:00am 12.3 WNW 9 13 1011.9 - - - - - - - - -
31/07:30am 12.8 NW 9 16 1011.4 - - - - - - - - -
31/07:00am 12.7 NNW 9 13 1011.1 - - - - - - - - -
31/06:30am 12.9 NW 8 12 1010.6 - - - - - - - - -
31/06:00am 13.0 NW 9 16 1010.3 - - - - - - - - -
31/05:30am 13.3 NW 10 18 1010.0 - - - - - - - - -
31/05:00am 13.3 NW 9 15 1009.8 - - - - - - - - -
31/04:30am 13.5 NNW 10 16 1009.4 - - - - - - - - -
31/04:00am 13.5 NW 10 17 1009.4 - - - - - - - - -
31/03:30am 13.4 NW 10 15 1009.3 - - - - - - - - -
31/03:00am 13.3 NNW 9 13 1009.3 - - - - - - - - -
31/02:30am 13.3 NNW 12 16 1009.6 - - - - - - - - -
31/02:00am 13.3 NNW 8 11 1009.9 - - - - - - - - -
31/01:30am 13.0 NW 5 7 1010.3 - - - - - - - - -
31/01:00am 13.0 NNW 7 10 1010.5 - - - - - - - - -
31/12:30am 12.9 NNW 7 9 1010.6 - - - - - - - - -
31/12:00am 12.6 N 5 6 1010.5 - - - - - - - - -
 
Date/Time
EST
Temp
°C
Wind Pressure Rain since
9am
mm
Weather Cloud Vis
km
Sea
Height
m
Swell
Dir  Spd
kts
Gust
kts
hPa Trend Height
m
Period
s
Dir
30/11:30pm 12.6 NNE 6 7 1010.8 - - - - - - - - -
30/11:00pm 12.8 NNE 6 7 1010.9 - - - - - - - - -
30/10:30pm 13.2 NNE 6 7 1011.2 - - - - - - - - -
30/10:00pm 13.3 NNE 4 5 1011.2 - - - - - - - - -
30/09:30pm 13.4 N 1 2 1011.4 - - - - - - - - -
30/09:00pm 13.6 NNW 4 5 1011.4 - - - - - - - - -
30/08:30pm 13.3 NNW 4 7 1011.3 - - - - - - - - -
30/08:00pm 13.4 NNW 5 7 1011.1 - - - - - - - - -
30/07:30pm 13.6 NNW 6 7 1011.1 - - - - - - - - -
30/07:00pm 13.8 NNW 7 10 1011.0 - - - - - - - - -
30/06:30pm 14.0 NNW 10 14 1010.9 - - - - - - - - -
30/06:00pm 14.0 NNW 9 13 1010.6 - - - - - - - - -
30/05:30pm 13.8 NNW 8 13 1010.2 - - - - - - - - -
30/05:00pm 13.7 N 10 14 1010.0 - - - - - - - - -
30/04:30pm 13.6 N 10 13 1010.2 - - - - - - - - -
30/04:00pm 13.5 NNW 11 15 1010.4 - - - - - - - - -
30/03:30pm 14.4 NNW 11 15 1010.4 - - - - - - - - -
30/03:00pm 14.4 NNW 11 14 1010.3 - - - - - - - - -
30/02:30pm 14.3 NNW 17 21 1010.4 - - - - - - - - -
30/02:00pm 14.9 N 12 17 1010.7 - - - - - - - - -
30/01:30pm 14.5 N 10 14 1010.9 - - - - - - - - -
30/01:00pm 14.7 N 11 15 1011.6 - - - - - - - - -
30/12:30pm 14.2 NNE 9 13 1012.0 - - - - - - - - -
30/12:00pm 13.8 NE 9 11 1012.5 - - - - - - - - -
30/11:30am 13.4 NE 10 13 1012.9 - - - - - - - - -
30/11:00am 13.2 NE 11 13 1013.3 - - - - - - - - -
30/10:30am 13.2 NNE 10 12 1013.6 - - - - - - - - -
30/10:00am 12.8 NNE 11 14 1014.1 - - - - - - - - -
30/09:30am 12.9 N 16 20 1014.7 - - - - - - - - -
30/09:00am 12.4 NNE 15 19 1014.8 - - - - - - - - -
30/08:30am 12.3 NNE 15 17 1014.8 - - - - - - - - -
30/08:00am 12.3 NNE 13 15 1014.8 - - - - - - - - -
30/07:30am 12.2 NNE 13 15 1015.2 - - - - - - - - -
30/07:00am 12.2 NNE 15 18 1015.4 - - - - - - - - -
30/06:30am 12.1 NNE 15 19 1015.7 - - - - - - - - -
30/06:00am 12.2 NNE 13 16 1015.9 - - - - - - - - -
30/05:30am 12.4 NE 14 16 1015.9 - - - - - - - - -
30/05:00am 12.4 NE 14 17 1016.1 - - - - - - - - -
30/04:30am 12.7 NE 14 17 1016.2 - - - - - - - - -
30/04:00am 12.7 NE 14 17 1016.1 - - - - - - - - -
30/03:30am 12.9 NE 13 15 1016.3 - - - - - - - - -
30/03:00am 13.2 NNE 13 16 1016.8 - - - - - - - - -
30/02:30am 14.2 NNE 14 17 1017.3 - - - - - - - - -
30/02:00am 14.8 N 11 13 1017.2 - - - - - - - - -
30/01:30am 14.3 ENE 9 10 1017.1 - - - - - - - - -
30/01:00am 14.4 ENE 11 13 1016.5 - - - - - - - - -
30/12:30am 14.4 ENE 12 14 1016.3 - - - - - - - - -
30/12:00am 14.1 ENE 11 12 1016.7 - - - - - - - - -
 
Date/Time
EST
Temp
°C
Wind Pressure Rain since
9am
mm
Weather Cloud Vis
km
Sea
Height
m
Swell
Dir  Spd
kts
Gust
kts
hPa Trend Height
m
Period
s
Dir
29/11:30pm 14.5 ENE 11 13 1017.3 - - - - - - - - -
29/11:00pm 14.6 ENE 12 14 1017.3 - - - - - - - - -
29/10:30pm 14.6 ENE 9 11 1017.7 - - - - - - - - -
29/10:00pm 14.7 NE 9 11 1017.7 - - - - - - - - -
29/09:30pm 14.6 ENE 10 12 1017.9 - - - - - - - - -
29/09:00pm 14.6 ENE 10 12 1017.8 - - - - - - - - -
29/08:30pm 14.7 ENE 11 13 1017.7 - - - - - - - - -
29/08:00pm 15.1 ENE 14 16 1017.4 - - - - - - - - -
29/07:30pm 15.4 ENE 12 14 1017.4 - - - - - - - - -
29/07:00pm 15.3 ENE 9 11 1017.5 - - - - - - - - -
29/06:30pm 16.4 NE 9 12 1017.3 - - - - - - - - -
29/06:00pm 16.4 NNE 9 11 1017.2 - - - - - - - - -
29/05:30pm 16.9 NE 14 16 1016.5 - - - - - - - - -
29/05:00pm 17.1 NNE 14 16 1016.5 - - - - - - - - -
29/04:30pm 16.7 NNE 12 15 1016.7 - - - - - - - - -
29/04:00pm 17.5 NNE 14 20 1016.6 - - - - - - - - -
29/03:30pm 17.0 NNE 13 16 1017.0 - - - - - - - - -
29/03:00pm 17.1 NNE 15 19 1017.4 - - - - - - - - -
29/02:30pm 16.6 NNE 13 15 1017.5 - - - - - - - - -
29/02:00pm 17.4 NNE 15 19 1017.7 - - - - - - - - -
29/01:30pm 17.1 NNE 15 20 1018.1 - - - - - - - - -
29/01:00pm 16.5 NNE 15 19 1018.7 - - - - - - - - -
29/12:30pm 16.3 NNE 15 17 1019.0 - - - - - - - - -
29/12:00pm 16.0 NNE 16 18 1019.3 - - - - - - - - -
29/11:30am 15.7 NNE 14 17 1019.5 - - - - - - - - -
29/11:00am 15.5 NNE 13 18 1019.9 - - - - - - - - -
29/10:30am 15.0 NNE 13 16 1020.2 - - - - - - - - -
29/10:00am 14.4 N 13 18 1020.5 - - - - - - - - -
29/09:30am 14.0 NNE 13 17 1020.7 - - - - - - - - -

Other Formats:

Comma delimited format used in spreadsheet applications
http://www.bom.gov.au/fwo/IDV60701/IDV60701.95826.axf

JavaScript Object Notation format (JSON) in row-major order
http://www.bom.gov.au/fwo/IDV60701/IDV60701.95826.json